Kamiiso, Japan
Current Conditions -  °F | °C
As of 8:00 PM on Saturday 22 Nov 2014 (Local Time) from RJCH Reporting Station
Broken Clouds Broken Clouds  
Wind Chill: 43°   Ceiling: Unl
Heat Index: 46°   Visibility: 6mi
Dew Point: 37°   Wind: 7mph
Humidity: 71%   Direction: 320°NW
Pressure: 30.12"   Gusts: NA
Location:  41.83°N, 140.67°E
Report Text: RJCH 221100Z 32006KT 9999 FEW015 BKN/// 08/03 Q1020
Loading
Personal Weather Stations






























Interactive Weather Map New forecast layout! Learn more

10-Day Weather Forecast

Advertisements
Track Severe Weather on mobile